Aviation Digital Data Service (ADDS)

Output produced by METARs form (0739 UTC 24 March 2019)
found at http://www.aviationweather.gov/metar/data/
 
EGAA 240720Z 21009KT 9999 FEW027 BKN048 04/01 Q1029
TAF EGAA 240453Z 2406/2506 23012KT 9999 FEW025 SCT040 
     BECMG 2410/2413 27018G28KT 
     PROB40 
     TEMPO 2413/2506 7000 SHRA 
     BECMG 2416/2419 29014KT 
     PROB30 
     TEMPO 2502/2506 BKN012
       
EGPL 240720Z AUTO 25027KT 9999 FEW036/// 07/04 Q1019 RERA
TAF EGPL 240458Z 2406/2415 24018KT 9999 BKN025 
     BECMG 2406/2409 28022KT 
     TEMPO 2406/2408 25020G30KT 6000 SHRA BKN014 
     PROB40 
     TEMPO 2406/2408 25030G42KT 2000 +SHRAGS BKN008CB 
     PROB40 
     TEMPO 2408/2415 29026G36KT 5000 SHRAGS BKN012
       
EGUB 240650Z AUTO 00000KT 9999 // BKN080/// 04/03 Q1031
EGBB 240720Z 25002KT CAVOK 05/02 Q1031
TAF EGBB 240459Z 2406/2506 VRB03KT 9999 FEW045 
     BECMG 2409/2412 30010KT 
     PROB30 
     TEMPO 2423/2504 8000 -SHRA
       
EGNH 240720Z 28016KT 9999 FEW037 07/02 Q1031
TAF EGNH 240659Z 2407/2415 28015KT 9999 SCT030 
     TEMPO 2412/2415 30018G28KT
       
EGDM 240650Z AUTO 32004KT 9999 FEW090/// 03/02 Q1031
EGHH 240720Z 33002KT 9999 MIFG NSC 02/01 Q1031
TAF EGHH 240628Z 2406/2415 34005KT 9999 SCT030 
     PROB30 2406/2409 8000
       
EGGD 240720Z AUTO VRB03KT 9999 NCD 05/01 Q1032
TAF EGGD 240454Z 2406/2506 VRB03KT 9999 SCT040 
     BECMG 2408/2411 29010KT 
     PROB30 
     TEMPO 2503/2506 8000 -SHRA BKN012
       
EGVN 240650Z 30001KT 9999 FEW045 04/02 Q1031 NOSIG
TAF EGVN 240423Z 2406/2506 30007KT 9999 SCT045 
     PROB40 
     TEMPO 2423/2506 SCT016
       
EGCK 240720Z AUTO 29012KT 9999 NCD 07/03 Q1032
TAF EGCK 240502Z 2406/2415 VRB04KT 9999 SCT030 
     BECMG 2409/2412 29015KT 
     TEMPO 2412/2415 30018G28KT
       
EGFF 240720Z AUTO 35004KT 9999 BKN042 05/03 Q1032
TAF EGFF 240459Z 2406/2506 VRB04KT 9999 FEW035 
     BECMG 2409/2412 29010KT
       
EGLC 240720Z AUTO 27001KT 9999 NCD 05/03 Q1031
TAF AMD EGLC 240600Z 2406/2415 VRB03KT 6000 SCT040 
     BECMG 2406/2409 33010KT 9999
       
EGAC 240720Z AUTO 18013KT 9999 FEW033/// 04/01 Q1030
TAF EGAC 240627Z 2406/2415 20010KT 9999 FEW025 SCT040 
     BECMG 2408/2411 26017G27KT 
     PROB30 
     TEMPO 2413/2415 7000 SHRA
       
EGXC 240650Z 25004KT CAVOK 02/01 Q1030 BLU
TAF EGXC 240431Z 2406/2424 27004KT 9999 FEW045 
     PROB30 
     TEMPO 2406/2408 6000 BR 
     BECMG 2410/2412 28015KT 
     PROB30 
     TEMPO 2412/2417 28015G25KT
       
EGYD 240650Z AUTO 27007KT 9999 // NCD 04/02 Q1030
TAF EGYD 240628Z 2407/2415 30005KT 9999 FEW030 
     BECMG 2410/2413 33015G25KT
       
EGDR 240650Z AUTO 02003KT 5000 // FEW006/// BKN045/// 09/08 Q1032
EGPD 240720Z AUTO 20012KT 9999 NCD 04/01 Q1020 NOSIG
TAF EGPD 240500Z 2406/2506 21009KT 9999 FEW040 
     TEMPO 2409/2411 25020G30KT 
     BECMG 2410/2412 29015KT 
     TEMPO 2411/2502 5000 SHRA BKN014 
     TEMPO 2411/2418 29025G35KT 
     BECMG 2418/2421 30018G28KT 
     TEMPO 2418/2505 31030G40KT 
     PROB30 
     TEMPO 2421/2501 31040G50KT
       
EGNX 240720Z 27007KT CAVOK 04/01 Q1031
TAF EGNX 240459Z 2406/2506 VRB03KT 9999 FEW045 
     BECMG 2408/2411 29012KT 
     PROB30 
     TEMPO 2420/2501 30015G25KT 8000 -SHRA
       
EGPH 240720Z 24015KT 9999 -RA SCT020 06/03 Q1024
TAF EGPH 240500Z 2406/2506 23009KT 9999 FEW035 
     PROB40 
     TEMPO 2406/2408 26018G28KT 8000 -SHRA 
     TEMPO 2408/2412 27028G38KT 4000 SHRA BKN014 
     TEMPO 2412/2418 29028G38KT 8000 -SHRA 
     PROB30 
     TEMPO 2418/2424 29020G30KT
       
EGTE 240720Z 00000KT 9999 FEW030 06/04 Q1032
TAF EGTE 240459Z 2406/2415 30005KT 9999 BKN030 
     PROB30 
     TEMPO 2406/2409 8000 -RA 
     BECMG 2410/2413 CAVOK
       
EGVA 240656Z AUTO 00000KT M M CLR 04/02 A3045 RMK AO2 SLP318 T00420021 RVRNO $
EGLF 240720Z AUTO 22002KT 9999 NCD 02/01 Q1031
TAF EGLF 240619Z 2407/2415 VRB03KT 9999 SCT045 
     BECMG 2408/2411 32010KT
       
EGKK 240720Z VRB02KT CAVOK 02/01 Q1031
TAF EGKK 240502Z 2406/2512 VRB03KT 9000 FEW040 
     BECMG 2406/2408 9999 
     BECMG 2408/2411 32010KT 
     PROB30 
     TEMPO 2503/2506 8000 -SHRA
       
EGPF 240720Z AUTO 23021KT 9999 -RA BKN023/// BKN030/// //////CB 06/03 Q1025
TAF EGPF 240500Z 2406/2506 23014KT 9999 BKN030 
     TEMPO 2406/2418 8000 -SHRA 
     PROB30 
     TEMPO 2406/2408 26020G30KT 
     PROB40 
     TEMPO 2408/2415 28022G37KT 4000 SHRA BKN014 
     BECMG 2415/2418 29015KT 
     PROB30 
     TEMPO 2415/2418 30020G30KT 
     BECMG 2418/2421 23009KT
       
EGLL 240720Z AUTO VRB01KT 9999 NCD 05/03 Q1031
TAF EGLL 240451Z 2406/2512 32007KT 9999 FEW045 
     PROB30 
     TEMPO 2406/2408 8000 
     PROB30 
     TEMPO 2502/2505 31015G25KT 8000 -SHRA
       
EGNJ 240720Z 25006KT CAVOK 04/02 Q1030
TAF EGNJ 240624Z 2406/2415 24004KT 9999 FEW030 
     BECMG 2409/2412 27014KT 
     PROB40 
     TEMPO 2412/2415 28018G28KT
       
EGPE 240720Z 22017KT 9999 -RA FEW015 SCT020 BKN042 04/03 Q1018
TAF EGPE 240458Z 2406/2415 21015KT 9999 SCT030 
     TEMPO 2406/2410 24020G30KT 7000 SHRA 
     PROB40 
     TEMPO 2406/2410 25030G40KT 4000 +SHRA BKN012 
     BECMG 2409/2411 26017KT 
     TEMPO 2410/2415 28022G33KT 4000 SHRA BKN014CB
       
EGPI 240720Z AUTO 25016KT 220V280 6000 -RA FEW016/// SCT021/// BKN035/// 07/06 Q1026
TAF EGPI 240502Z 2406/2415 25018G30KT 9999 SCT030 
     TEMPO 2406/2415 6000 SHRA 
     PROB30 
     TEMPO 2406/2415 4000 +SHRAGS
       
EGTK 240720Z 32002KT CAVOK 05/03 Q1031
TAF EGTK 240700Z 2407/2415 VRB03KT 9999 FEW045 
     BECMG 2409/2412 30010KT
       
EGQK 240650Z AUTO 23019KT 9999 -RA FEW024/// SCT038/// 05/02 Q1018
EGPA 240720Z AUTO 25031G44KT 9999 -RA BKN017/// BKN025/// OVC043/// 05/03 Q1014 RERA
TAF EGPA 240458Z 2406/2415 23016KT 9999 FEW015CB SCT030 
     TEMPO 2406/2410 24022G32KT 4000 SHRAGS BKN008CB 
     PROB30 
     TEMPO 2406/2410 25032G42KT 2000 +TSRAGS 
     BECMG 2409/2411 27020KT 
     TEMPO 2410/2415 28032G42KT 4000 SHRAGS BKN014CB
       
EGUL 240656Z AUTO 00000KT 9999 CLR 03/01 A3043 RMK AO2 SLP308 T00270008 $
EGNM 240650Z 25009KT 9999 FEW012 02/01 Q1029
TAF EGNM 240454Z 2406/2506 28008KT 9999 SCT030 
     TEMPO 2406/2409 BKN013 
     BECMG 2409/2412 27018KT 
     TEMPO 2412/2423 29021G31KT 
     PROB30 
     TEMPO 2415/2423 7000 SHRA BKN014 
     BECMG 2423/2502 31008KT
       
EGXE 240650Z AUTO 12005KT 9999 FEW170/// 03/00 Q1029
EGQL 240650Z 25015KT 9999 FEW029 05/02 Q1023 BLU
TAF EGQL 240425Z 2406/2415 24015KT 9999 FEW022 
     PROB30 
     TEMPO 2406/2409 25015G27KT -SHRA SCT022 
     PROB30 
     TEMPO 2409/2415 25025G38KT 7000 SHRA SCT020
       
EGXU 240650Z AUTO 27002KT 9999 // NCD 02/01 Q1030
EGGP 240720Z 25004KT 9999 FEW040 05/02 Q1031
TAF EGGP 240501Z 2406/2506 VRB04KT 9999 SCT030 
     BECMG 2409/2412 30015KT 
     TEMPO 2412/2424 30018G28KT 
     TEMPO 2418/2424 6000 SHRA BKN014
       
EGQS 240650Z 23013KT 9999 -SHRA FEW023CB 05/02 Q1018 BLU
TAF EGQS 240439Z 2406/2424 23015KT 9999 FEW022 
     PROB30 
     TEMPO 2406/2409 24022G35KT -SHRA SCT022 
     PROB30 
     TEMPO 2409/2411 24030G42KT 4000 +SHRA SCT012 BKN020CB 
     PROB30 
     TEMPO 2411/2419 24030G42KT 7000 SHRA SCT020CB 
     BECMG 2412/2415 28020KT 
     PROB30 
     TEMPO 2419/2423 24030G42KT -SHRA SCT022
       
EGGW 240720Z AUTO 30004KT 260V340 9999 NCD 06/01 Q1031
TAF EGGW 240454Z 2406/2506 VRB02KT 9999 FEW045 
     PROB30 
     TEMPO 2406/2408 8000 
     BECMG 2408/2411 30011KT 
     PROB30 
     TEMPO 2501/2505 8000 -SHRA BKN010
       
EGMD 240720Z AUTO 34008KT 9999 NCD 05/05 Q1031
TAF EGMD 240456Z 2406/2415 03008KT 9999 SCT040 
     BECMG 2407/2409 33010KT
       
EGCC 240720Z AUTO VRB03KT 9999 FEW043 02/01 Q1031 NOSIG
TAF EGCC 240501Z 2406/2512 VRB03KT 9999 SCT030 
     BECMG 2409/2412 29014KT 
     TEMPO 2412/2424 30018G28KT 
     TEMPO 2418/2424 6000 SHRA BKN014 
     BECMG 2503/2506 32004KT
       
EGYM 240650Z AUTO 22002KT 9999 NCD 03/01 Q1030
EGUN 240656Z 23002KT 9999 FEW100 04/04 A3043 RMK AO2A SLP308 WND DATA ESTMD T00370037 .
TAF EGUN 240415Z 2404/2510 VRB06KT 9999 BKN080 QNH3043INS 
     BECMG 2409/2410 30012KT 9999 SCT050 QNH3040INS 
     BECMG 2414/2415 30012G20KT 9999 SCT050 QNH3036INS 
     BECMG 2419/2420 29012KT 9999 SCT040 QNH3033INS 
     BECMG 2507/2508 32012G20KT 9999 SCT040 QNH3039INS TX11/2415Z TN04/2406Z
       
EGNT 240720Z 24009KT 9999 FEW020 05/01 Q1027
TAF EGNT 240501Z 2406/2506 25008KT 9999 SCT030 
     BECMG 2409/2412 27018G28KT 
     TEMPO 2412/2418 6000 SHRA 
     BECMG 2418/2421 29012KT
       
EGWU 240650Z 22001KT CAVOK 03/02 Q1031 NOSIG
TAF EGWU 240733Z 2409/2503 32005KT 9999 FEW035
       
EGSH 240720Z 25004KT CAVOK 05/04 Q1030 NOSIG
TAF EGSH 240459Z 2406/2415 VRB03KT 9999 FEW045 
     BECMG 2409/2412 29010KT
       
EGVO 240650Z AUTO 35002KT 9999 BKN022/// SCT090/// 04/02 Q1031
EGPK 240720Z 23015KT 9999 SCT025 06/04 Q1027
TAF EGPK 240500Z 2406/2506 24014KT 9999 BKN030 
     TEMPO 2406/2418 8000 -SHRA 
     PROB30 
     TEMPO 2406/2408 27020G30KT 
     PROB40 
     TEMPO 2408/2415 28022G35KT 4000 SHRA BKN014 
     BECMG 2415/2418 30015KT 
     PROB30 
     TEMPO 2415/2424 30020G30KT
       
EGXP 240650Z AUTO 27004KT 9999 // NCD 02/01 Q1030
EGPM 240720Z AUTO 23024G35KT 2100 +RA BKN013/// OVC025/// 05/03 Q1008
TAF EGPM 240458Z 2406/2415 23016G26KT 9999 FEW016CB SCT030 
     TEMPO 2406/2410 24028G40KT 4000 SHRAGS BKN008CB 
     PROB30 
     TEMPO 2406/2410 2000 +TSRAGS 
     BECMG 2409/2411 27016KT 
     TEMPO 2410/2415 29022G32KT 4000 SHRAGS BKN012CB
       
EGOS 240650Z AUTO 27004KT 9999 NCD 01/00 Q1031
EGHI 240720Z 00000KT 9999 FEW045 02/01 Q1032
TAF EGHI 240724Z 2407/2415 34005KT 9999 FEW045 
     PROB30 2407/2409 8000
       
EGMC 240720Z 00000KT CAVOK 03/02 Q1031
TAF EGMC 240600Z 2406/2415 VRB03KT 9999 FEW045 
     BECMG 2408/2411 32010KT
       
EGDX 240650Z AUTO 31004KT 9999 NCD 06/03 Q1032
TAF EGDX 240553Z 2407/2415 30005KT 9999 FEW030
       
EGSS 240720Z AUTO VRB02KT 9999 NCD 04/03 Q1031
TAF EGSS 240454Z 2406/2512 VRB02KT 9999 FEW048 
     PROB40 2406/2408 6000 
     BECMG 2408/2411 30012KT 
     PROB30 
     TEMPO 2502/2506 31015G25KT 8000 -SHRA BKN012 
     BECMG 2510/2512 36009KT
       
EGPO 240720Z AUTO 27020KT 9999 FEW025/// SCT038/// 06/02 Q1016
TAF EGPO 240458Z 2406/2415 25018KT 9999 BKN025 
     BECMG 2406/2409 28020KT 
     TEMPO 2406/2408 25018G28KT 6000 SHRA BKN014 
     PROB40 
     TEMPO 2406/2408 26028G40KT 4000 +SHRAGS BKN008CB 
     PROB40 
     TEMPO 2408/2415 28026G36KT 5000 SHRAGS BKN012
       
EGPB 240720Z AUTO 23027G37KT 9999 BKN012/// OVC023/// 06/04 Q1011 RERA
TAF EGPB 240458Z 2406/2415 24022G32KT 9999 FEW016CB SCT030 
     TEMPO 2406/2410 24032G42KT 4000 SHRAGS BKN008CB 
     PROB30 
     TEMPO 2406/2410 2000 +TSRAGS 
     BECMG 2409/2411 27020KT 
     TEMPO 2410/2415 28025G35KT 4000 SHRAGS BKN012CB
       
EGNV 240720Z 20007KT 9999 FEW045 03/01 Q1029
TAF EGNV 240624Z 2406/2415 24005KT 9999 FEW030 
     BECMG 2409/2412 27015KT 
     TEMPO 2412/2415 28018G28KT
       
EGXZ 240650Z AUTO 28003KT 9999 BKN050/// M00/M01 Q1030
EGOV 240650Z AUTO 28007KT 9999 NCD 05/03 Q1032
EGXW 240650Z AUTO 25005KT 9999 NCD 04/02 Q1030
EGUW 240650Z AUTO 31001KT 9999 BKN090/// 03/02 Q1030
EGPC 240720Z AUTO 24011KT 9999 SCT033/// BKN042/// 05/02 Q1015
TAF EGPC 240458Z 2406/2415 24009KT 9999 FEW016 SCT035 
     TEMPO 2406/2410 25020G30KT 7000 SHRA BKN012CB 
     PROB30 
     TEMPO 2406/2410 25030G40KT 4000 +SHRAGS BKN008CB 
     BECMG 2409/2411 28020KT 
     TEMPO 2410/2415 28032G42KT 4000 SHRAGS BKN014CB
       
EGXT 240650Z AUTO 29006KT 9999 NCD 04/02 Q1030
EGDY 240650Z AUTO 22001KT 9999 NCD 03/02 Q1031